createdAt,value
2018-04-12T00:01:49.937Z,68.07
2018-04-12T00:04:17.696Z,69.55
2018-04-12T00:06:45.338Z,69.27
2018-04-12T00:09:13.123Z,69.17
2018-04-12T00:11:40.879Z,68.74
2018-04-12T00:14:08.496Z,69.71
2018-04-12T00:16:36.205Z,69.90
2018-04-12T00:19:03.871Z,70.03
2018-04-12T00:21:31.740Z,70.39
2018-04-12T00:23:59.453Z,69.86
2018-04-12T00:26:27.375Z,69.75
2018-04-12T00:28:55.140Z,71.17
2018-04-12T00:31:23.205Z,71.82
2018-04-12T00:33:51.037Z,71.78
2018-04-12T00:36:18.886Z,72.77
2018-04-12T00:38:46.616Z,72.78
2018-04-12T00:41:14.543Z,71.46
2018-04-12T00:43:42.444Z,71.35
2018-04-12T00:46:10.297Z,70.95
2018-04-12T00:48:37.969Z,71.12
2018-04-12T00:51:05.727Z,70.59
2018-04-12T00:53:45.271Z,70.25
2018-04-12T00:56:13.139Z,69.65
2018-04-12T00:58:40.904Z,69.12
2018-04-12T01:01:08.771Z,69.19
2018-04-12T01:03:36.489Z,68.74
2018-04-12T01:06:04.232Z,68.69
2018-04-12T01:08:32.065Z,68.44
2018-04-12T01:10:59.827Z,68.27
2018-04-12T01:13:27.530Z,68.34
2018-04-12T01:15:55.459Z,68.32
2018-04-12T01:18:23.293Z,68.18
2018-04-12T01:20:51.092Z,68.63
2018-04-12T01:23:18.885Z,68.58
2018-04-12T01:25:46.617Z,69.09
2018-04-12T01:28:14.389Z,69.09
2018-04-12T01:30:42.357Z,69.00
2018-04-12T01:33:16.054Z,68.91
2018-04-12T01:35:43.824Z,69.00
2018-04-12T01:38:11.546Z,69.36
2018-04-12T01:40:39.352Z,69.16
2018-04-12T01:43:07.107Z,69.46
2018-04-12T01:45:34.983Z,69.56
2018-04-12T01:48:02.638Z,69.86
2018-04-12T01:50:30.476Z,69.80
2018-04-12T01:52:58.276Z,69.91
2018-04-12T01:55:26.143Z,70.44
2018-04-12T01:57:53.805Z,70.69
2018-04-12T02:00:21.672Z,70.44
2018-04-12T02:02:49.388Z,70.78
2018-04-12T02:05:17.151Z,70.78
2018-04-12T02:07:44.863Z,70.85
2018-04-12T02:10:12.684Z,71.18
2018-04-12T02:12:40.601Z,71.03
2018-04-12T02:15:08.464Z,71.28
2018-04-12T02:17:36.157Z,71.00
2018-04-12T02:20:03.989Z,70.84
2018-04-12T02:22:31.759Z,70.61
2018-04-12T02:24:59.521Z,70.66
2018-04-12T02:27:27.286Z,70.65
2018-04-12T02:29:55.114Z,70.92
2018-04-12T02:32:22.813Z,71.01
2018-04-12T02:34:50.526Z,71.02
2018-04-12T02:37:18.246Z,70.95
2018-04-12T02:39:45.954Z,71.30
2018-04-12T02:42:13.772Z,71.24
2018-04-12T02:44:41.498Z,71.23
2018-04-12T02:47:09.300Z,71.57
2018-04-12T02:49:37.024Z,71.25
2018-04-12T02:52:04.832Z,71.39
2018-04-12T02:54:32.593Z,71.42
2018-04-12T02:57:00.569Z,71.41
2018-04-12T02:59:28.220Z,71.48
2018-04-12T03:01:56.091Z,71.40
2018-04-12T03:04:23.823Z,71.27
2018-04-12T03:06:51.565Z,71.36
2018-04-12T03:09:19.283Z,71.56
2018-04-12T03:11:47.169Z,71.42
2018-04-12T03:14:14.973Z,71.61
2018-04-12T03:16:42.781Z,71.72
2018-04-12T03:19:10.440Z,71.89
2018-04-12T03:21:38.224Z,72.06
2018-04-12T03:24:05.970Z,72.07
2018-04-12T03:26:33.697Z,72.23
2018-04-12T03:29:01.608Z,72.13
2018-04-12T03:31:29.363Z,72.09
2018-04-12T03:33:57.121Z,71.91
2018-04-12T03:36:24.859Z,72.17
2018-04-12T03:38:52.614Z,72.20
2018-04-12T03:41:20.426Z,72.01
2018-04-12T03:43:48.244Z,72.17
2018-04-12T03:46:16.013Z,72.02
2018-04-12T03:48:44.098Z,71.97
2018-04-12T03:51:11.679Z,72.03
2018-04-12T03:53:39.659Z,72.15
2018-04-12T03:56:07.370Z,72.25
2018-04-12T03:58:35.187Z,72.42
2018-04-12T04:01:02.952Z,72.11
2018-04-12T04:03:30.801Z,72.38
2018-04-12T04:05:58.786Z,72.48
2018-04-12T04:08:26.559Z,72.72
2018-04-12T04:10:54.213Z,73.08
2018-04-12T04:13:22.082Z,73.07
2018-04-12T04:16:01.651Z,73.09
2018-04-12T04:18:41.365Z,73.37
2018-04-12T04:21:09.234Z,73.51
2018-04-12T04:23:37.099Z,73.54
2018-04-12T04:26:04.822Z,73.20
2018-04-12T04:28:32.731Z,73.30
2018-04-12T04:31:00.599Z,73.66
2018-04-12T04:33:28.364Z,73.74
2018-04-12T04:35:56.124Z,73.77
2018-04-12T04:38:23.852Z,73.66
2018-04-12T04:40:51.656Z,73.34
2018-04-12T04:43:19.481Z,73.45
2018-04-12T04:45:47.249Z,73.24
2018-04-12T04:48:15.082Z,73.18
2018-04-12T04:50:42.919Z,73.00
2018-04-12T04:53:10.595Z,72.98
2018-04-12T04:55:38.451Z,72.89
2018-04-12T04:58:06.314Z,73.00
2018-04-12T05:00:34.175Z,73.09
2018-04-12T05:03:01.989Z,72.82
2018-04-12T05:05:29.812Z,72.48
2018-04-12T05:07:57.576Z,72.54
2018-04-12T05:10:25.423Z,72.25
2018-04-12T05:12:53.210Z,71.99
2018-04-12T05:15:21.075Z,72.21
2018-04-12T05:17:48.841Z,71.82
2018-04-12T05:20:16.718Z,71.54
2018-04-12T05:22:44.583Z,71.46
2018-04-12T05:25:12.440Z,71.40
2018-04-12T05:27:40.207Z,71.68
2018-04-12T05:30:08.072Z,71.42
2018-04-12T05:32:35.797Z,71.79
2018-04-12T05:35:03.554Z,71.19
2018-04-12T05:37:31.275Z,70.47
2018-04-12T05:39:59.028Z,70.09
2018-04-12T05:42:26.753Z,69.88
2018-04-12T05:44:54.560Z,69.96
2018-04-12T05:47:22.424Z,69.99
2018-04-12T05:49:50.134Z,69.42
2018-04-12T05:52:17.951Z,68.77
2018-04-12T05:54:45.817Z,68.58
2018-04-12T05:57:13.787Z,68.97
2018-04-12T05:59:41.503Z,68.67
2018-04-12T06:02:09.359Z,67.96
2018-04-12T06:04:37.183Z,66.87
2018-04-12T06:07:04.997Z,66.39
2018-04-12T06:09:32.815Z,65.81
2018-04-12T06:12:00.552Z,64.17
2018-04-12T06:14:28.343Z,63.84
2018-04-12T06:16:56.264Z,63.94
2018-04-12T06:19:24.076Z,62.63
2018-04-12T06:21:51.841Z,63.42
2018-04-12T06:24:19.483Z,64.64
2018-04-12T06:26:47.146Z,66.04
2018-04-12T06:29:14.815Z,65.40
2018-04-12T06:31:42.445Z,65.53
2018-04-12T06:34:10.131Z,65.15
2018-04-12T06:36:37.774Z,64.01
2018-04-12T06:39:06.292Z,64.49
2018-04-12T06:41:33.909Z,65.07
2018-04-12T06:44:01.597Z,63.53
2018-04-12T06:46:29.222Z,62.57
2018-04-12T06:48:56.886Z,61.44
2018-04-12T06:51:24.518Z,62.49
2018-04-12T06:53:58.015Z,61.29
2018-04-12T06:56:25.626Z,59.80
2018-04-12T06:58:53.399Z,61.18
2018-04-12T07:01:21.030Z,60.20
2018-04-12T07:03:48.735Z,56.93
2018-04-12T07:06:16.391Z,52.16
2018-04-12T07:08:44.057Z,51.86
2018-04-12T07:11:11.675Z,51.10
2018-04-12T07:13:39.763Z,51.69
2018-04-12T07:16:07.657Z,49.17
2018-04-12T07:18:35.318Z,47.81
2018-04-12T07:21:03.048Z,46.27
2018-04-12T07:23:30.675Z,45.94
2018-04-12T07:25:58.377Z,44.75
2018-04-12T07:28:26.026Z,44.05
2018-04-12T07:30:53.736Z,44.47
2018-04-12T07:33:21.406Z,45.11
2018-04-12T07:35:49.069Z,43.98
2018-04-12T07:38:16.760Z,44.70
2018-04-12T07:40:44.484Z,45.13
2018-04-12T07:43:12.170Z,45.91
2018-04-12T07:45:39.852Z,43.36
2018-04-12T07:48:07.510Z,42.79
2018-04-12T07:50:35.130Z,42.89
2018-04-12T07:53:02.780Z,45.51
2018-04-12T07:55:30.454Z,46.17
2018-04-12T07:57:58.179Z,42.14
2018-04-12T08:00:25.799Z,43.87
2018-04-12T08:02:53.479Z,43.95
2018-04-12T08:05:21.102Z,43.59
2018-04-12T08:07:48.766Z,43.97
2018-04-12T08:10:16.390Z,44.37
2018-04-12T08:12:44.132Z,44.72
2018-04-12T08:15:11.791Z,42.82
2018-04-12T08:17:39.435Z,42.91
2018-04-12T08:20:07.100Z,43.97
2018-04-12T08:22:34.761Z,44.05
2018-04-12T08:25:02.381Z,42.35
2018-04-12T08:27:30.035Z,42.86
2018-04-12T08:29:57.669Z,41.84
2018-04-12T08:32:25.348Z,41.34
2018-04-12T08:34:52.964Z,39.94
2018-04-12T08:37:20.627Z,39.27
2018-04-12T08:39:48.269Z,38.18
2018-04-12T08:42:15.934Z,36.53
2018-04-12T08:44:43.580Z,39.68
2018-04-12T08:47:11.244Z,40.18
2018-04-12T08:49:38.931Z,39.39
2018-04-12T08:52:06.607Z,39.37
2018-04-12T08:54:34.234Z,38.55
2018-04-12T08:57:01.933Z,36.28
2018-04-12T08:59:29.583Z,36.69
2018-04-12T09:01:57.264Z,35.34
2018-04-12T09:04:24.936Z,37.90
2018-04-12T09:06:52.552Z,39.57
2018-04-12T09:09:20.252Z,37.83
2018-04-12T09:11:47.902Z,38.40
2018-04-12T09:14:15.593Z,39.03
2018-04-12T09:16:43.263Z,40.88
2018-04-12T09:19:10.923Z,39.90
2018-04-12T09:21:38.555Z,40.19
2018-04-12T09:24:06.224Z,39.58
2018-04-12T09:26:33.856Z,40.00
2018-04-12T09:29:01.533Z,39.85
2018-04-12T09:31:29.187Z,39.90
2018-04-12T09:33:56.932Z,41.46
2018-04-12T09:36:24.563Z,40.69
2018-04-12T09:38:52.234Z,40.35
2018-04-12T09:41:19.903Z,40.88
2018-04-12T09:43:47.563Z,40.33
2018-04-12T09:46:15.231Z,41.00
2018-04-12T09:48:42.914Z,41.69
2018-04-12T09:51:10.551Z,43.10
2018-04-12T09:53:38.220Z,42.40
2018-04-12T09:56:05.855Z,43.35
2018-04-12T09:58:33.533Z,43.38
2018-04-12T10:01:01.203Z,43.95
2018-04-12T10:03:28.963Z,44.00
2018-04-12T10:06:02.075Z,44.16
2018-04-12T10:08:29.829Z,45.60
2018-04-12T10:10:57.455Z,43.89
2018-04-12T10:13:25.203Z,44.30
2018-04-12T10:15:52.904Z,43.94
2018-04-12T10:18:20.573Z,42.90
2018-04-12T10:20:48.197Z,43.95
2018-04-12T10:23:15.876Z,43.82
2018-04-12T10:25:43.550Z,43.86
2018-04-12T10:28:11.209Z,44.30
2018-04-12T10:30:38.885Z,42.93
2018-04-12T10:33:06.595Z,40.97
2018-04-12T10:35:34.222Z,42.51
2018-04-12T10:38:01.894Z,42.22
2018-04-12T10:40:29.522Z,42.09
2018-04-12T10:42:57.205Z,40.87
2018-04-12T10:45:24.885Z,41.48
2018-04-12T10:47:52.607Z,40.40
2018-04-12T10:50:20.267Z,41.22
2018-04-12T10:52:47.958Z,38.77
2018-04-12T10:55:15.579Z,40.30
2018-04-12T10:57:43.236Z,40.06
2018-04-12T11:00:10.874Z,40.86
2018-04-12T11:02:38.575Z,42.06
2018-04-12T11:05:06.232Z,40.72
2018-04-12T11:07:34.317Z,41.08
2018-04-12T11:10:01.985Z,41.79
2018-04-12T11:12:29.619Z,42.86
2018-04-12T11:14:57.283Z,42.90
2018-04-12T11:17:24.926Z,42.18
2018-04-12T11:19:52.614Z,42.55
2018-04-12T11:22:20.252Z,42.55
2018-04-12T11:24:47.952Z,42.48
2018-04-12T11:27:15.581Z,41.08
2018-04-12T11:29:43.252Z,40.48
2018-04-12T11:32:10.877Z,40.02
2018-04-12T11:34:38.616Z,40.29
2018-04-12T11:37:06.258Z,38.88
2018-04-12T11:39:33.925Z,39.60
2018-04-12T11:42:02.484Z,40.43
2018-04-12T11:44:30.162Z,39.26
2018-04-12T11:46:57.794Z,37.64
2018-04-12T11:49:25.524Z,37.76
2018-04-12T11:51:53.142Z,38.84
2018-04-12T11:54:20.819Z,38.20
2018-04-12T11:56:48.498Z,38.84
2018-04-12T11:59:16.176Z,39.42
2018-04-12T12:01:43.866Z,38.94
2018-04-12T12:04:11.523Z,40.17
2018-04-12T12:06:39.206Z,39.13
2018-04-12T12:09:06.911Z,39.36
2018-04-12T12:11:34.551Z,38.56
2018-04-12T12:14:02.231Z,38.19
2018-04-12T12:16:29.873Z,38.45
2018-04-12T12:18:57.523Z,36.59
2018-04-12T12:21:25.181Z,36.28
2018-04-12T12:23:52.865Z,37.11
2018-04-12T12:26:20.512Z,36.72
2018-04-12T12:28:48.207Z,38.23
2018-04-12T12:31:15.840Z,37.28
2018-04-12T12:33:43.550Z,38.40
2018-04-12T12:36:11.164Z,37.82
2018-04-12T12:38:38.868Z,38.78
2018-04-12T12:41:06.497Z,38.50
2018-04-12T12:43:34.170Z,37.26
2018-04-12T12:46:01.822Z,38.34
2018-04-12T12:48:29.480Z,39.14
2018-04-12T12:50:57.160Z,40.48
2018-04-12T12:53:24.832Z,41.05
2018-04-12T12:55:52.482Z,41.75
2018-04-12T12:58:20.136Z,39.70
2018-04-12T13:00:47.759Z,38.61
2018-04-12T13:03:15.406Z,39.33
2018-04-12T13:05:43.072Z,38.83
2018-04-12T13:08:10.723Z,39.08
2018-04-12T13:10:38.374Z,38.63
2018-04-12T13:13:06.063Z,36.49
2018-04-12T13:15:33.694Z,35.88
2018-04-12T13:18:01.306Z,34.87
2018-04-12T13:20:28.969Z,33.57
2018-04-12T13:22:56.599Z,35.44
2018-04-12T13:25:24.258Z,34.31
2018-04-12T13:27:51.924Z,34.05
2018-04-12T13:30:19.589Z,34.27
2018-04-12T13:32:47.227Z,33.58
2018-04-12T13:35:14.905Z,34.48
2018-04-12T13:37:42.530Z,32.05
2018-04-12T13:40:10.333Z,31.94
2018-04-12T13:42:38.303Z,33.36
2018-04-12T13:45:06.272Z,33.92
2018-04-12T13:47:34.003Z,33.72
2018-04-12T13:50:01.804Z,33.70
2018-04-12T13:52:29.570Z,32.81
2018-04-12T13:54:57.440Z,35.54
2018-04-12T13:57:25.171Z,34.11
2018-04-12T13:59:52.959Z,32.47
2018-04-12T14:02:20.681Z,31.42
2018-04-12T14:04:48.490Z,33.82
2018-04-12T14:07:16.160Z,32.57
2018-04-12T14:09:44.019Z,35.11
2018-04-12T14:12:11.748Z,34.66
2018-04-12T14:14:39.440Z,34.94
2018-04-12T14:17:07.211Z,35.78
2018-04-12T14:19:35.076Z,35.78
2018-04-12T14:22:02.816Z,35.52
2018-04-12T14:24:30.709Z,34.88
2018-04-12T14:26:58.463Z,35.06
2018-04-12T14:29:26.236Z,36.47
2018-04-12T14:31:54.079Z,36.53
2018-04-12T14:34:21.824Z,35.67
2018-04-12T14:36:49.733Z,34.99
2018-04-12T14:39:17.499Z,33.22
2018-04-12T14:41:45.394Z,32.80
2018-04-12T14:44:13.224Z,32.76
2018-04-12T14:46:40.936Z,33.12
2018-04-12T14:49:08.862Z,36.08
2018-04-12T14:51:36.569Z,36.94
2018-04-12T14:54:04.388Z,36.08
2018-04-12T14:56:32.158Z,36.14
2018-04-12T14:58:59.915Z,33.83
2018-04-12T15:01:27.643Z,33.08
2018-04-12T15:03:55.416Z,32.55
2018-04-12T15:06:23.327Z,33.43
2018-04-12T15:08:51.088Z,31.57
2018-04-12T15:11:18.846Z,31.10
2018-04-12T15:13:46.719Z,31.15
2018-04-12T15:16:14.425Z,32.32
2018-04-12T15:18:42.241Z,32.93
2018-04-12T15:21:09.911Z,33.49
2018-04-12T15:23:37.775Z,33.70
2018-04-12T15:26:05.430Z,33.35
2018-04-12T15:28:33.204Z,33.41
2018-04-12T15:31:01.023Z,33.96
2018-04-12T15:33:28.825Z,34.43
2018-04-12T15:35:56.591Z,33.65
2018-04-12T15:38:24.317Z,34.16
2018-04-12T15:40:52.048Z,34.73
2018-04-12T15:43:19.785Z,34.44
2018-04-12T15:45:47.650Z,33.81
2018-04-12T15:48:15.414Z,34.39
2018-04-12T15:50:43.177Z,34.75
2018-04-12T15:53:10.975Z,34.06
2018-04-12T15:55:39.835Z,34.40
2018-04-12T15:58:07.614Z,33.82
2018-04-12T16:00:35.568Z,34.28
2018-04-12T16:03:03.334Z,34.91
2018-04-12T16:05:30.994Z,34.78
2018-04-12T16:07:58.656Z,35.47
2018-04-12T16:10:26.422Z,35.38
2018-04-12T16:12:54.191Z,35.15
2018-04-12T16:15:22.052Z,35.38
2018-04-12T16:17:49.820Z,36.32
2018-04-12T16:20:18.000Z,35.62
2018-04-12T16:22:45.759Z,35.97
2018-04-12T16:25:13.518Z,36.03
2018-04-12T16:27:41.385Z,35.59
2018-04-12T16:30:09.154Z,34.30
2018-04-12T16:32:36.869Z,34.03
2018-04-12T16:35:04.580Z,35.67
2018-04-12T16:37:32.341Z,35.58
2018-04-12T16:40:00.109Z,35.55
2018-04-12T16:42:27.841Z,35.98
2018-04-12T16:44:55.532Z,36.70
2018-04-12T16:47:23.292Z,37.38
2018-04-12T16:49:51.118Z,36.71
2018-04-12T16:52:19.032Z,37.17
2018-04-12T16:54:46.743Z,36.77
2018-04-12T16:57:14.560Z,36.42
2018-04-12T16:59:42.215Z,36.50
2018-04-12T17:02:09.870Z,35.97
2018-04-12T17:04:37.496Z,36.82
2018-04-12T17:07:05.179Z,37.32
2018-04-12T17:09:32.791Z,36.86
2018-04-12T17:12:00.440Z,37.18
2018-04-12T17:14:28.098Z,37.26
2018-04-12T17:16:55.822Z,37.36
2018-04-12T17:19:23.499Z,38.00
2018-04-12T17:21:51.146Z,38.17
2018-04-12T17:24:18.808Z,38.34
2018-04-12T17:26:46.412Z,38.69
2018-04-12T17:29:14.079Z,39.06
2018-04-12T17:31:41.689Z,38.89
2018-04-12T17:34:10.213Z,38.08
2018-04-12T17:36:37.896Z,38.32
2018-04-12T17:39:06.521Z,38.21
2018-04-12T17:41:34.179Z,38.88
2018-04-12T17:44:01.827Z,38.61
2018-04-12T17:46:29.463Z,38.43
2018-04-12T17:48:57.109Z,38.82
2018-04-12T17:51:24.711Z,39.55
2018-04-12T17:53:52.366Z,39.71
2018-04-12T17:56:20.041Z,39.61
2018-04-12T17:58:47.684Z,39.93
2018-04-12T18:01:15.316Z,41.63
2018-04-12T18:03:42.967Z,40.69
2018-04-12T18:06:10.588Z,40.95
2018-04-12T18:08:38.209Z,40.93
2018-04-12T18:11:05.855Z,42.47
2018-04-12T18:13:33.550Z,42.55
2018-04-12T18:16:01.207Z,41.85
2018-04-12T18:18:28.833Z,42.21
2018-04-12T18:20:56.500Z,42.05
2018-04-12T18:23:24.160Z,41.92
2018-04-12T18:25:51.820Z,42.00
2018-04-12T18:28:19.438Z,42.52
2018-04-12T18:30:47.094Z,42.45
2018-04-12T18:33:14.701Z,42.40
2018-04-12T18:35:42.352Z,42.90
2018-04-12T18:38:09.994Z,42.64
2018-04-12T18:40:37.664Z,42.79
2018-04-12T18:43:05.300Z,43.33
2018-04-12T18:45:32.955Z,43.10
2018-04-12T18:48:00.609Z,43.57
2018-04-12T18:50:28.306Z,44.20
2018-04-12T18:52:55.980Z,44.00
2018-04-12T18:55:23.658Z,44.37
2018-04-12T18:57:51.290Z,44.67
2018-04-12T19:00:19.000Z,45.86
2018-04-12T19:02:46.658Z,46.18
2018-04-12T19:05:14.267Z,46.75
2018-04-12T19:07:41.962Z,46.50
2018-04-12T19:10:09.591Z,46.07
2018-04-12T19:12:37.250Z,45.35
2018-04-12T19:15:04.924Z,45.36
2018-04-12T19:17:32.587Z,46.29
2018-04-12T19:20:00.201Z,46.35
2018-04-12T19:22:27.864Z,45.73
2018-04-12T19:24:55.621Z,45.41
2018-04-12T19:27:23.283Z,47.32
2018-04-12T19:29:50.931Z,47.64
2018-04-12T19:32:18.555Z,47.18
2018-04-12T19:34:46.250Z,48.24
2018-04-12T19:37:13.866Z,49.02
2018-04-12T19:39:41.514Z,49.62
2018-04-12T19:42:09.164Z,50.06
2018-04-12T19:44:36.877Z,50.35
2018-04-12T19:47:04.758Z,49.93
2018-04-12T19:49:33.448Z,50.38
2018-04-12T19:52:01.104Z,51.72
2018-04-12T19:54:28.721Z,50.33
2018-04-12T19:56:56.488Z,50.32
2018-04-12T19:59:24.135Z,50.69
2018-04-12T20:01:51.803Z,51.44
2018-04-12T20:04:19.428Z,51.53
2018-04-12T20:06:47.110Z,52.15
2018-04-12T20:09:14.720Z,52.32
2018-04-12T20:11:42.379Z,53.14
2018-04-12T20:14:10.007Z,53.85
2018-04-12T20:16:37.735Z,52.74
2018-04-12T20:19:05.354Z,53.66
2018-04-12T20:21:33.028Z,53.10
2018-04-12T20:24:00.654Z,53.72
2018-04-12T20:26:28.323Z,53.89
2018-04-12T20:28:55.955Z,53.89
2018-04-12T20:31:23.611Z,54.70
2018-04-12T20:33:51.774Z,54.99
2018-04-12T20:36:19.539Z,53.45
2018-04-12T20:38:47.198Z,52.25
2018-04-12T20:41:14.868Z,52.40
2018-04-12T20:43:42.511Z,53.69
2018-04-12T20:46:10.234Z,54.58
2018-04-12T20:48:37.867Z,54.83
2018-04-12T20:51:05.581Z,54.62
2018-04-12T20:53:33.223Z,55.84
2018-04-12T20:56:00.883Z,53.52
2018-04-12T20:58:28.557Z,54.59
2018-04-12T21:00:56.236Z,55.09
2018-04-12T21:03:23.876Z,55.53
2018-04-12T21:05:51.586Z,55.80
2018-04-12T21:08:19.256Z,56.33
2018-04-12T21:10:46.927Z,56.72
2018-04-12T21:13:14.560Z,56.86
2018-04-12T21:15:42.386Z,57.31
2018-04-12T21:18:10.002Z,57.07
2018-04-12T21:20:37.648Z,57.02
2018-04-12T21:23:05.328Z,57.13
2018-04-12T21:25:33.034Z,57.64
2018-04-12T21:28:00.648Z,56.71
2018-04-12T21:30:28.334Z,56.86
2018-04-12T21:32:55.959Z,56.12
2018-04-12T21:35:23.631Z,55.26
2018-04-12T21:37:51.286Z,55.46
2018-04-12T21:40:18.965Z,56.48
2018-04-12T21:42:46.576Z,56.24
2018-04-12T21:45:14.236Z,55.97
2018-04-12T21:47:41.863Z,55.24
2018-04-12T21:50:09.580Z,54.81
2018-04-12T21:52:37.480Z,54.34
2018-04-12T21:55:05.135Z,53.85
2018-04-12T21:57:32.788Z,53.73
2018-04-12T22:00:00.416Z,53.99
2018-04-12T22:02:28.086Z,54.71
2018-04-12T22:04:55.697Z,54.91
2018-04-12T22:07:23.372Z,54.89
2018-04-12T22:09:50.988Z,55.08
2018-04-12T22:12:18.659Z,55.25
2018-04-12T22:14:46.279Z,55.59
2018-04-12T22:17:14.003Z,54.62
2018-04-12T22:19:41.630Z,54.16
2018-04-12T22:22:09.309Z,53.81
2018-04-12T22:24:36.926Z,53.78
2018-04-12T22:27:04.627Z,53.78
2018-04-12T22:29:32.254Z,54.37
2018-04-12T22:31:59.927Z,54.40
2018-04-12T22:34:27.555Z,53.93
2018-04-12T22:36:55.287Z,54.21
2018-04-12T22:39:22.935Z,54.94
2018-04-12T22:41:50.597Z,54.59
2018-04-12T22:44:18.216Z,54.78
2018-04-12T22:46:45.899Z,54.92
2018-04-12T22:49:13.528Z,55.05
2018-04-12T22:51:41.178Z,55.20
2018-04-12T22:54:08.817Z,55.49
2018-04-12T22:56:36.479Z,54.91
2018-04-12T22:59:04.155Z,55.19
2018-04-12T23:01:31.826Z,55.06
2018-04-12T23:03:59.446Z,55.18
2018-04-12T23:06:27.151Z,55.17
2018-04-12T23:08:54.804Z,54.97
2018-04-12T23:11:22.461Z,54.86
2018-04-12T23:13:50.100Z,55.10
2018-04-12T23:16:17.753Z,55.28
2018-04-12T23:18:45.444Z,55.16
2018-04-12T23:21:13.106Z,55.40
2018-04-12T23:23:40.731Z,54.92
2018-04-12T23:28:42.095Z,55.14
2018-04-12T23:31:09.750Z,54.77
2018-04-12T23:33:37.370Z,54.80
2018-04-12T23:36:05.020Z,54.39
2018-04-12T23:38:32.647Z,54.36
2018-04-12T23:41:00.334Z,54.43
2018-04-12T23:43:27.956Z,54.42
2018-04-12T23:45:55.620Z,54.50
2018-04-12T23:48:23.259Z,54.14
2018-04-12T23:50:50.915Z,54.19
2018-04-12T23:53:18.573Z,54.22
2018-04-12T23:55:46.258Z,54.63
2018-04-12T23:58:13.931Z,54.43
